createdAt,value
2017-06-30T00:00:15.271Z,16.60
2017-06-30T00:02:43.602Z,16.60
2017-06-30T00:05:11.882Z,16.50
2017-06-30T00:07:40.173Z,16.40
2017-06-30T00:10:08.507Z,16.40
2017-06-30T00:12:37.586Z,16.40
2017-06-30T00:15:05.885Z,16.30
2017-06-30T00:17:34.207Z,16.30
2017-06-30T00:20:02.496Z,16.30
2017-06-30T00:22:30.779Z,16.30
2017-06-30T00:24:59.125Z,16.20
2017-06-30T00:27:27.414Z,16.30
2017-06-30T00:29:55.725Z,16.20
2017-06-30T00:32:24.030Z,16.20
2017-06-30T00:34:53.119Z,16.20
2017-06-30T00:37:21.450Z,16.20
2017-06-30T00:39:49.757Z,16.20
2017-06-30T00:42:18.069Z,16.20
2017-06-30T00:44:46.351Z,16.10
2017-06-30T00:47:14.697Z,16.10
2017-06-30T00:49:43.005Z,16.10
2017-06-30T00:52:11.315Z,16.10
2017-06-30T00:54:39.591Z,16.10
2017-06-30T00:57:07.976Z,16.10
2017-06-30T00:59:36.257Z,16.10
2017-06-30T01:02:04.596Z,16.00
2017-06-30T01:04:33.654Z,16.00
2017-06-30T01:07:02.054Z,16.00
2017-06-30T01:09:30.351Z,16.00
2017-06-30T01:11:58.753Z,16.00
2017-06-30T01:14:27.030Z,16.00
2017-06-30T01:16:55.320Z,16.00
2017-06-30T01:19:23.641Z,16.00
2017-06-30T01:21:51.922Z,16.00
2017-06-30T01:24:20.966Z,15.90
2017-06-30T01:26:49.302Z,15.90
2017-06-30T01:29:17.583Z,15.90
2017-06-30T01:31:45.861Z,15.90
2017-06-30T01:34:14.196Z,15.90
2017-06-30T01:36:42.543Z,15.80
2017-06-30T01:39:10.828Z,15.80
2017-06-30T01:41:39.106Z,15.80
2017-06-30T01:44:07.428Z,15.80
2017-06-30T01:46:35.755Z,15.80
2017-06-30T01:49:04.057Z,15.80
2017-06-30T01:51:32.374Z,15.80
2017-06-30T01:54:00.784Z,15.70
2017-06-30T01:56:29.401Z,15.70
2017-06-30T01:58:58.479Z,15.70
2017-06-30T02:01:26.772Z,15.70
2017-06-30T02:03:55.086Z,15.80
2017-06-30T02:06:24.191Z,15.80
2017-06-30T02:08:53.230Z,15.90
2017-06-30T02:11:21.565Z,15.80
2017-06-30T02:13:49.887Z,15.90
2017-06-30T02:16:18.970Z,15.90
2017-06-30T02:18:47.259Z,15.80
2017-06-30T02:21:15.610Z,15.80
2017-06-30T02:23:43.892Z,15.80
2017-06-30T02:26:12.173Z,15.80
2017-06-30T02:28:40.483Z,15.80
2017-06-30T02:31:08.830Z,15.80
2017-06-30T02:33:37.128Z,15.80
2017-06-30T02:36:05.484Z,15.80
2017-06-30T02:38:33.867Z,15.80
2017-06-30T02:41:02.164Z,15.80
2017-06-30T02:43:30.551Z,15.80
2017-06-30T02:45:58.826Z,15.90
2017-06-30T02:48:27.114Z,15.90
2017-06-30T02:50:55.460Z,15.80
2017-06-30T02:53:23.739Z,15.80
2017-06-30T02:55:52.026Z,15.80
2017-06-30T02:58:20.488Z,15.90
2017-06-30T03:00:48.773Z,16.00
2017-06-30T03:03:17.051Z,15.90
2017-06-30T03:05:45.388Z,15.90
2017-06-30T03:08:13.686Z,16.00
2017-06-30T03:10:42.014Z,15.90
2017-06-30T03:13:10.294Z,16.00
2017-06-30T03:15:38.574Z,16.00
2017-06-30T03:18:06.898Z,16.00
2017-06-30T03:20:35.196Z,15.90
2017-06-30T03:23:03.579Z,15.90
2017-06-30T03:25:31.876Z,15.90
2017-06-30T03:28:00.250Z,15.90
2017-06-30T03:30:28.590Z,15.90
2017-06-30T03:32:56.870Z,15.90
2017-06-30T03:35:25.164Z,15.90
2017-06-30T03:37:53.487Z,15.90
2017-06-30T03:40:21.897Z,16.00
2017-06-30T03:42:50.180Z,16.00
2017-06-30T03:45:18.463Z,16.00
2017-06-30T03:47:46.786Z,15.90
2017-06-30T03:50:15.844Z,16.00
2017-06-30T03:52:44.184Z,16.00
2017-06-30T03:55:12.466Z,16.00
2017-06-30T03:57:40.773Z,16.00
2017-06-30T04:00:09.863Z,16.00
2017-06-30T04:02:38.151Z,16.00
2017-06-30T04:05:06.436Z,16.10
2017-06-30T04:07:34.760Z,16.00
2017-06-30T04:10:03.049Z,16.00
2017-06-30T04:12:31.408Z,16.10
2017-06-30T04:14:59.950Z,16.10
2017-06-30T04:17:28.456Z,16.10
2017-06-30T04:19:56.785Z,16.20
2017-06-30T04:22:25.062Z,16.20
2017-06-30T04:24:53.389Z,16.20
2017-06-30T04:27:22.441Z,16.30
2017-06-30T04:29:50.882Z,16.20
2017-06-30T04:32:20.162Z,16.30
2017-06-30T04:34:48.912Z,16.30
2017-06-30T04:37:17.291Z,16.30
2017-06-30T04:39:46.537Z,16.30
2017-06-30T04:42:14.921Z,16.30
2017-06-30T04:44:43.618Z,16.30
2017-06-30T04:47:12.020Z,16.30
2017-06-30T04:49:41.458Z,16.30
2017-06-30T04:52:09.725Z,16.20
2017-06-30T04:54:38.362Z,16.30
2017-06-30T04:57:06.941Z,16.30
2017-06-30T04:59:35.513Z,16.30
2017-06-30T05:02:04.039Z,16.30
2017-06-30T05:04:32.503Z,16.20
2017-06-30T05:07:00.826Z,16.10
2017-06-30T05:09:29.271Z,16.20
2017-06-30T05:11:57.562Z,16.10
2017-06-30T05:14:25.993Z,16.10
2017-06-30T05:16:54.375Z,16.10
2017-06-30T05:19:23.693Z,16.10
2017-06-30T05:21:52.080Z,16.10
2017-06-30T05:24:20.367Z,16.10
2017-06-30T05:26:48.930Z,16.00
2017-06-30T05:29:17.659Z,16.00
2017-06-30T05:31:45.989Z,16.00
2017-06-30T05:34:15.099Z,16.10
2017-06-30T05:36:43.636Z,16.00
2017-06-30T05:39:12.035Z,16.10
2017-06-30T05:41:40.346Z,16.00
2017-06-30T05:44:08.915Z,16.10
2017-06-30T05:46:37.274Z,16.00
2017-06-30T05:49:05.625Z,16.00
2017-06-30T05:51:34.002Z,16.00
2017-06-30T05:54:02.274Z,16.00
2017-06-30T05:56:30.673Z,16.00
2017-06-30T05:58:59.067Z,16.00
2017-06-30T06:01:28.709Z,16.00
2017-06-30T06:03:57.814Z,15.90
2017-06-30T06:06:26.976Z,15.90
2017-06-30T06:08:55.407Z,15.90
2017-06-30T06:11:23.691Z,15.70
2017-06-30T06:13:52.031Z,15.80
2017-06-30T06:16:20.341Z,15.80
2017-06-30T06:18:48.716Z,15.80
2017-06-30T06:21:17.093Z,15.80
2017-06-30T06:23:46.168Z,15.80
2017-06-30T06:26:14.754Z,15.80
2017-06-30T06:28:43.829Z,15.80
2017-06-30T06:31:12.186Z,15.80
2017-06-30T06:33:41.280Z,15.80
2017-06-30T06:36:09.629Z,15.80
2017-06-30T06:38:37.979Z,15.90
2017-06-30T06:41:07.164Z,15.90
2017-06-30T06:43:35.465Z,15.90
2017-06-30T06:46:03.920Z,15.90
2017-06-30T06:48:32.383Z,16.00
2017-06-30T06:51:00.694Z,16.00
2017-06-30T06:53:29.209Z,16.00
2017-06-30T06:55:57.542Z,16.00
2017-06-30T06:58:26.855Z,16.00
2017-06-30T07:00:56.123Z,16.00
2017-06-30T07:03:24.552Z,16.00
2017-06-30T07:05:53.598Z,16.00
2017-06-30T07:08:22.182Z,16.00
2017-06-30T07:10:50.524Z,16.00
2017-06-30T07:13:18.961Z,16.10
2017-06-30T07:15:48.286Z,16.00
2017-06-30T07:18:16.588Z,15.90
2017-06-30T07:20:44.872Z,16.00
2017-06-30T07:23:13.206Z,16.00
2017-06-30T07:25:41.490Z,16.00
2017-06-30T07:28:10.161Z,15.90
2017-06-30T07:30:38.480Z,15.90
2017-06-30T07:33:06.872Z,15.90
2017-06-30T07:35:35.196Z,16.00
2017-06-30T07:38:03.522Z,16.00
2017-06-30T07:40:31.812Z,16.00
2017-06-30T07:43:00.123Z,16.00
2017-06-30T07:45:28.503Z,16.00
2017-06-30T07:47:56.777Z,16.00
2017-06-30T07:50:25.070Z,16.00
2017-06-30T07:52:53.386Z,16.00
2017-06-30T07:55:22.588Z,16.10
2017-06-30T07:57:50.970Z,16.10
2017-06-30T08:00:19.242Z,16.20
2017-06-30T08:02:47.546Z,16.10
2017-06-30T08:05:15.936Z,16.10
2017-06-30T08:07:44.322Z,16.10
2017-06-30T08:10:12.808Z,16.10
2017-06-30T08:12:41.092Z,16.20
2017-06-30T08:15:09.507Z,16.20
2017-06-30T08:17:37.826Z,16.10
2017-06-30T08:20:06.111Z,16.20
2017-06-30T08:22:35.184Z,16.20
2017-06-30T08:25:03.518Z,16.10
2017-06-30T08:27:31.944Z,16.20
2017-06-30T08:30:00.251Z,16.20
2017-06-30T08:32:28.653Z,16.10
2017-06-30T08:34:57.026Z,16.20
2017-06-30T08:37:25.419Z,16.30
2017-06-30T08:39:53.833Z,16.30
2017-06-30T08:42:22.114Z,16.30
2017-06-30T08:44:50.436Z,16.30
2017-06-30T08:47:19.515Z,16.50
2017-06-30T08:49:47.794Z,16.50
2017-06-30T08:52:16.137Z,16.60
2017-06-30T08:54:44.442Z,16.60
2017-06-30T08:57:12.720Z,16.60
2017-06-30T08:59:41.167Z,16.50
2017-06-30T09:02:09.450Z,16.60
2017-06-30T09:04:37.730Z,16.50
2017-06-30T09:07:06.067Z,16.60
2017-06-30T09:09:34.355Z,16.60
2017-06-30T09:12:02.716Z,16.70
2017-06-30T09:14:31.048Z,16.70
2017-06-30T09:16:59.324Z,16.70
2017-06-30T09:19:27.607Z,16.80
2017-06-30T09:21:56.700Z,16.70
2017-06-30T09:24:25.748Z,16.70
2017-06-30T09:26:54.026Z,16.70
2017-06-30T09:29:22.355Z,16.80
2017-06-30T09:31:50.641Z,16.80
2017-06-30T09:34:18.969Z,16.80
2017-06-30T09:36:48.160Z,16.90
2017-06-30T09:39:16.452Z,16.90
2017-06-30T09:41:44.742Z,16.80
2017-06-30T09:44:13.861Z,16.80
2017-06-30T09:46:42.907Z,16.70
2017-06-30T09:49:11.205Z,16.70
2017-06-30T09:51:39.638Z,16.60
2017-06-30T09:54:09.426Z,16.60
2017-06-30T09:56:37.721Z,16.60
2017-06-30T09:59:06.135Z,16.70
2017-06-30T10:01:34.432Z,16.70
2017-06-30T10:04:02.718Z,16.80
2017-06-30T10:06:31.052Z,16.90
2017-06-30T10:08:59.393Z,16.90
2017-06-30T10:11:27.695Z,16.80
2017-06-30T10:13:57.005Z,16.80
2017-06-30T10:16:25.392Z,16.90
2017-06-30T10:18:53.662Z,16.90
2017-06-30T10:21:22.067Z,17.00
2017-06-30T10:23:50.348Z,17.10
2017-06-30T10:26:18.682Z,17.20
2017-06-30T10:28:46.963Z,17.40
2017-06-30T10:31:16.023Z,17.50
2017-06-30T10:33:44.436Z,17.50
2017-06-30T10:36:12.815Z,17.40
2017-06-30T10:38:41.226Z,17.30
2017-06-30T10:41:09.520Z,17.40
2017-06-30T10:43:37.808Z,17.40
2017-06-30T10:46:06.192Z,17.40
2017-06-30T10:48:34.567Z,17.60
2017-06-30T10:51:02.871Z,17.80
2017-06-30T10:53:31.198Z,17.90
2017-06-30T10:55:59.483Z,18.00
2017-06-30T10:58:27.811Z,18.10
2017-06-30T11:00:56.095Z,18.00
2017-06-30T11:03:24.476Z,18.10
2017-06-30T11:05:52.759Z,18.20
2017-06-30T11:08:21.063Z,18.30
2017-06-30T11:10:49.387Z,18.40
2017-06-30T11:13:17.784Z,18.50
2017-06-30T11:15:46.125Z,18.40
2017-06-30T11:18:14.409Z,18.40
2017-06-30T11:20:42.745Z,18.40
2017-06-30T11:23:11.097Z,18.30
2017-06-30T11:25:39.383Z,18.30
2017-06-30T11:28:07.676Z,18.40
2017-06-30T11:30:36.015Z,18.50
2017-06-30T11:33:04.598Z,18.50
2017-06-30T11:35:32.887Z,18.30
2017-06-30T11:38:01.215Z,18.20
2017-06-30T11:40:29.560Z,18.20
2017-06-30T11:42:57.846Z,18.20
2017-06-30T11:45:26.137Z,18.30
2017-06-30T11:47:54.492Z,18.50
2017-06-30T11:50:22.774Z,18.60
2017-06-30T11:52:51.267Z,18.70
2017-06-30T11:55:19.604Z,18.90
2017-06-30T11:57:47.905Z,19.00
2017-06-30T12:00:16.272Z,18.90
2017-06-30T12:02:44.560Z,18.90
2017-06-30T12:05:12.978Z,19.00
2017-06-30T12:07:41.304Z,19.10
2017-06-30T12:10:09.651Z,19.10
2017-06-30T12:12:38.024Z,19.20
2017-06-30T12:15:06.356Z,19.30
2017-06-30T12:17:35.404Z,19.60
2017-06-30T12:20:03.734Z,19.50
2017-06-30T12:22:32.793Z,19.70
2017-06-30T12:25:01.124Z,19.60
2017-06-30T12:27:29.456Z,19.70
2017-06-30T12:29:57.730Z,19.80
2017-06-30T12:32:26.076Z,19.80
2017-06-30T12:34:54.354Z,19.80
2017-06-30T12:37:22.667Z,20.00
2017-06-30T12:39:50.983Z,20.20
2017-06-30T12:42:20.154Z,20.40
2017-06-30T12:44:48.439Z,20.40
2017-06-30T12:47:16.729Z,20.40
2017-06-30T12:49:45.057Z,20.50
2017-06-30T12:52:14.150Z,20.70
2017-06-30T12:54:42.452Z,20.70
2017-06-30T12:57:11.530Z,20.80
2017-06-30T12:59:39.922Z,20.70
2017-06-30T13:02:08.202Z,20.70
2017-06-30T13:04:36.536Z,20.80
2017-06-30T13:07:05.591Z,20.90
2017-06-30T13:09:33.889Z,20.90
2017-06-30T13:12:02.213Z,20.80
2017-06-30T13:14:31.276Z,20.80
2017-06-30T13:16:59.562Z,20.80
2017-06-30T13:19:28.038Z,21.00
2017-06-30T13:21:56.403Z,21.20
2017-06-30T13:24:25.488Z,21.50
2017-06-30T13:26:53.815Z,21.40
2017-06-30T13:29:22.094Z,21.60
2017-06-30T13:31:50.405Z,21.70
2017-06-30T13:34:18.761Z,21.80
2017-06-30T13:36:47.038Z,21.90
2017-06-30T13:39:16.126Z,22.30
2017-06-30T13:41:44.477Z,22.30
2017-06-30T13:44:12.750Z,22.40
2017-06-30T13:46:41.048Z,22.30
2017-06-30T13:49:09.540Z,22.10
2017-06-30T13:51:37.890Z,21.70
2017-06-30T13:54:06.196Z,21.30
2017-06-30T13:56:35.313Z,20.20
2017-06-30T13:59:04.376Z,19.50
2017-06-30T14:01:32.675Z,19.50
2017-06-30T14:04:01.017Z,19.40
2017-06-30T14:06:29.307Z,19.80
2017-06-30T14:08:57.598Z,20.20
2017-06-30T14:11:25.951Z,20.50
2017-06-30T14:13:55.010Z,20.60
2017-06-30T14:16:23.320Z,20.60
2017-06-30T14:18:51.662Z,20.20
2017-06-30T14:21:20.031Z,20.00
2017-06-30T14:23:49.092Z,19.30
2017-06-30T14:26:17.431Z,19.30
2017-06-30T14:28:46.478Z,18.70
2017-06-30T14:31:14.766Z,18.70
2017-06-30T14:33:43.094Z,18.60
2017-06-30T14:36:11.442Z,18.50
2017-06-30T14:38:39.723Z,18.60
2017-06-30T14:41:08.020Z,18.60
2017-06-30T14:43:36.354Z,18.70
2017-06-30T14:46:04.634Z,18.70
2017-06-30T14:48:32.931Z,18.70
2017-06-30T14:51:01.262Z,18.60
2017-06-30T14:53:29.718Z,18.60
2017-06-30T14:55:58.006Z,18.50
2017-06-30T14:58:26.400Z,18.40
2017-06-30T15:00:54.740Z,18.30
2017-06-30T15:03:23.046Z,18.20
2017-06-30T15:05:51.388Z,18.00
2017-06-30T15:08:20.452Z,17.60
2017-06-30T15:10:48.757Z,17.60
2017-06-30T15:13:17.355Z,17.50
2017-06-30T15:15:45.694Z,17.30
2017-06-30T15:18:14.006Z,17.30
2017-06-30T15:20:42.345Z,17.30
2017-06-30T15:23:11.451Z,17.10
2017-06-30T15:25:40.605Z,17.20
2017-06-30T15:28:08.926Z,17.10
2017-06-30T15:30:37.280Z,17.10
2017-06-30T15:33:05.567Z,17.10
2017-06-30T15:35:33.898Z,17.00
2017-06-30T15:38:02.246Z,17.10
2017-06-30T15:40:30.545Z,16.90
2017-06-30T15:42:58.848Z,17.00
2017-06-30T15:45:27.252Z,16.90
2017-06-30T15:47:55.646Z,16.80
2017-06-30T15:50:23.930Z,16.80
2017-06-30T15:52:52.437Z,16.80
2017-06-30T15:55:20.787Z,16.70
2017-06-30T15:57:49.081Z,16.70
2017-06-30T16:00:17.390Z,16.80
2017-06-30T16:02:45.782Z,16.80
2017-06-30T16:05:14.180Z,17.00
2017-06-30T16:07:42.525Z,17.00
2017-06-30T16:10:10.854Z,17.10
2017-06-30T16:12:39.242Z,17.30
2017-06-30T16:15:07.652Z,17.30
2017-06-30T16:17:36.749Z,17.40
2017-06-30T16:20:05.225Z,17.30
2017-06-30T16:22:33.576Z,17.30
2017-06-30T16:25:01.885Z,17.30
2017-06-30T16:27:30.210Z,17.30
2017-06-30T16:29:58.600Z,17.30
2017-06-30T16:32:27.038Z,17.30
2017-06-30T16:34:55.392Z,17.30
2017-06-30T16:37:23.714Z,17.20
2017-06-30T16:39:52.011Z,17.00
2017-06-30T16:42:20.353Z,16.90
2017-06-30T16:44:48.708Z,17.00
2017-06-30T16:47:16.982Z,17.10
2017-06-30T16:49:45.276Z,17.20
2017-06-30T16:52:13.595Z,17.30
2017-06-30T16:54:41.989Z,17.30
2017-06-30T16:57:10.382Z,17.30
2017-06-30T16:59:38.778Z,17.30
2017-06-30T17:02:07.175Z,17.30
2017-06-30T17:04:35.468Z,17.30
2017-06-30T17:07:05.956Z,17.10
2017-06-30T17:09:34.304Z,17.00
2017-06-30T17:12:02.696Z,16.90
2017-06-30T17:14:31.759Z,16.80
2017-06-30T17:17:00.074Z,16.80
2017-06-30T17:19:28.567Z,16.80
2017-06-30T17:21:56.849Z,16.70
2017-06-30T17:24:25.125Z,16.60
2017-06-30T17:26:53.565Z,16.50
2017-06-30T17:29:21.834Z,16.20
2017-06-30T17:31:50.120Z,16.00
2017-06-30T17:34:18.511Z,15.80
2017-06-30T17:36:46.843Z,15.90
2017-06-30T17:39:15.118Z,15.60
2017-06-30T17:41:44.203Z,15.50
2017-06-30T17:44:12.497Z,15.40
2017-06-30T17:46:40.895Z,15.50
2017-06-30T17:49:09.180Z,15.40
2017-06-30T17:51:37.505Z,15.40
2017-06-30T17:54:05.792Z,15.40
2017-06-30T17:56:34.114Z,15.30
2017-06-30T17:59:02.431Z,15.20
2017-06-30T18:01:30.823Z,15.10
2017-06-30T18:03:59.144Z,15.10
2017-06-30T18:06:28.190Z,15.20
2017-06-30T18:08:56.505Z,15.20
2017-06-30T18:11:24.791Z,15.10
2017-06-30T18:13:53.121Z,15.10
2017-06-30T18:16:22.300Z,15.10
2017-06-30T18:18:50.627Z,15.10
2017-06-30T18:21:18.954Z,15.20
2017-06-30T18:23:47.244Z,15.30
2017-06-30T18:26:15.546Z,15.40
2017-06-30T18:28:43.881Z,15.50
2017-06-30T18:31:12.185Z,15.50
2017-06-30T18:33:40.523Z,15.40
2017-06-30T18:36:08.812Z,15.40
2017-06-30T18:38:37.148Z,15.40
2017-06-30T18:41:05.491Z,15.40
2017-06-30T18:43:33.940Z,15.50
2017-06-30T18:46:02.229Z,15.50
2017-06-30T18:48:30.563Z,15.50
2017-06-30T18:50:58.955Z,15.50
2017-06-30T18:53:27.342Z,15.60
2017-06-30T18:55:55.753Z,15.50
2017-06-30T18:58:24.041Z,15.50
2017-06-30T19:00:52.384Z,15.60
2017-06-30T19:03:20.702Z,15.50
2017-06-30T19:05:49.034Z,15.50
2017-06-30T19:08:17.442Z,15.50
2017-06-30T19:10:45.867Z,15.40
2017-06-30T19:13:14.289Z,15.50
2017-06-30T19:15:42.578Z,15.50
2017-06-30T19:18:10.918Z,15.40
2017-06-30T19:20:39.207Z,15.40
2017-06-30T19:23:07.540Z,15.40
2017-06-30T19:25:36.009Z,15.40
2017-06-30T19:28:04.320Z,15.40
2017-06-30T19:30:34.240Z,15.50
2017-06-30T19:33:02.536Z,15.50
2017-06-30T19:35:30.910Z,15.50
2017-06-30T19:37:59.293Z,15.40
2017-06-30T19:40:27.612Z,15.30
2017-06-30T19:42:55.980Z,15.40
2017-06-30T19:45:24.370Z,15.40
2017-06-30T19:47:52.656Z,15.50
2017-06-30T19:50:20.939Z,15.50
2017-06-30T19:52:49.428Z,15.50
2017-06-30T19:55:17.838Z,15.40
2017-06-30T19:57:46.140Z,15.30
2017-06-30T20:00:15.260Z,15.50
2017-06-30T20:02:43.630Z,15.50
2017-06-30T20:05:11.921Z,15.60
2017-06-30T20:07:40.268Z,15.60
2017-06-30T20:10:08.541Z,15.50
2017-06-30T20:12:36.830Z,15.50
2017-06-30T20:15:05.205Z,15.50
2017-06-30T20:17:33.536Z,15.40
2017-06-30T20:20:01.828Z,15.40
2017-06-30T20:22:30.242Z,15.40
2017-06-30T20:24:58.644Z,15.40
2017-06-30T20:27:26.994Z,15.40
2017-06-30T20:29:55.293Z,15.50
2017-06-30T20:32:23.705Z,15.40
2017-06-30T20:34:52.000Z,15.40
2017-06-30T20:37:20.285Z,15.40
2017-06-30T20:39:48.684Z,15.40
2017-06-30T20:42:16.999Z,15.50
2017-06-30T20:44:46.074Z,15.30
2017-06-30T20:47:14.406Z,15.40
2017-06-30T20:49:42.691Z,15.40
2017-06-30T20:52:11.739Z,15.30
2017-06-30T20:54:40.087Z,15.30
2017-06-30T20:57:08.362Z,15.30
2017-06-30T20:59:37.546Z,15.10
2017-06-30T21:02:05.838Z,15.10
2017-06-30T21:04:34.140Z,15.10
2017-06-30T21:07:02.515Z,15.00
2017-06-30T21:09:30.812Z,14.90
2017-06-30T21:11:59.088Z,14.90
2017-06-30T21:14:27.403Z,14.90
2017-06-30T21:16:55.791Z,14.90
2017-06-30T21:19:24.127Z,14.90
2017-06-30T21:21:52.471Z,14.90
2017-06-30T21:24:20.762Z,15.00
2017-06-30T21:26:49.091Z,14.90
2017-06-30T21:29:17.422Z,14.80
2017-06-30T21:31:45.713Z,14.80
2017-06-30T21:34:14.051Z,14.80
2017-06-30T21:36:42.412Z,14.80
2017-06-30T21:39:11.489Z,14.80
2017-06-30T21:41:39.772Z,14.80
2017-06-30T21:44:08.150Z,14.90
2017-06-30T21:46:36.474Z,14.80
2017-06-30T21:49:04.759Z,14.90
2017-06-30T21:51:33.109Z,14.90
2017-06-30T21:54:01.415Z,14.80
2017-06-30T21:56:30.639Z,14.80
2017-06-30T21:58:58.999Z,14.80
2017-06-30T22:01:27.423Z,14.90
2017-06-30T22:03:55.703Z,14.90
2017-06-30T22:06:24.207Z,14.90
2017-06-30T22:08:52.547Z,14.90
2017-06-30T22:11:21.601Z,14.90
2017-06-30T22:13:49.884Z,14.90
2017-06-30T22:16:18.202Z,14.90
2017-06-30T22:18:46.596Z,14.90
2017-06-30T22:21:15.015Z,14.90
2017-06-30T22:23:43.345Z,15.00
2017-06-30T22:26:11.650Z,14.90
2017-06-30T22:28:40.004Z,14.90
2017-06-30T22:31:08.435Z,14.80
2017-06-30T22:33:36.712Z,14.90
2017-06-30T22:36:04.989Z,14.90
2017-06-30T22:38:33.426Z,14.90
2017-06-30T22:41:02.510Z,14.90
2017-06-30T22:43:30.846Z,14.90
2017-06-30T22:45:59.139Z,14.90
2017-06-30T22:48:27.422Z,14.90
2017-06-30T22:50:55.776Z,14.90
2017-06-30T22:53:24.076Z,14.90
2017-06-30T22:55:52.363Z,14.90
2017-06-30T22:58:20.671Z,15.00
2017-06-30T23:00:51.124Z,14.80
2017-06-30T23:03:19.465Z,14.80
2017-06-30T23:05:47.752Z,14.80
2017-06-30T23:08:16.035Z,14.80
2017-06-30T23:10:44.365Z,14.90
2017-06-30T23:13:13.410Z,14.90
2017-06-30T23:15:41.729Z,14.90
2017-06-30T23:18:10.040Z,14.90
2017-06-30T23:20:38.514Z,14.80
2017-06-30T23:23:06.789Z,14.80
2017-06-30T23:25:35.211Z,14.80
2017-06-30T23:28:03.488Z,14.80
2017-06-30T23:30:31.763Z,14.80
2017-06-30T23:33:00.079Z,14.80
2017-06-30T23:35:28.463Z,14.80
2017-06-30T23:37:56.857Z,14.80
2017-06-30T23:40:25.179Z,14.80
2017-06-30T23:42:53.498Z,14.80
2017-06-30T23:45:21.786Z,14.80
2017-06-30T23:47:50.122Z,14.70
2017-06-30T23:50:18.403Z,14.60
2017-06-30T23:52:46.736Z,14.60
2017-06-30T23:55:15.010Z,14.60
2017-06-30T23:57:43.360Z,14.70
